TimeCDT,TemperatureF,Dew PointF,Humidity,Sea Level PressureIn,VisibilityMPH,Wind Direction,Wind SpeedMPH,Gust SpeedMPH,PrecipitationIn,Events,Conditions,WindDirDegrees,DateUTC
12:43 AM,33.8,30.2,87,29.87,10.0,West,16.1,25.3,0.00,,Overcast,280,2012-10-05 05:43:00
12:53 AM,34.0,30.0,85,29.91,10.0,West,15.0,27.6,0.00,,Overcast,270,2012-10-05 05:53:00
1:27 AM,33.8,30.2,87,29.87,10.0,West,15.0,27.6,N/A,,Mostly Cloudy,270,2012-10-05 06:27:00
1:34 AM,33.8,30.2,87,29.87,10.0,West,15.0,28.8,N/A,,Overcast,270,2012-10-05 06:34:00
1:53 AM,34.0,30.0,85,29.92,10.0,West,13.8,21.9,N/A,,Overcast,280,2012-10-05 06:53:00
3:53 AM,33.1,30.0,89,29.91,10.0,West,12.7,19.6,0.00,,Overcast,270,2012-10-05 08:53:00
4:14 AM,33.8,32.0,93,29.87,1.8,West,11.5,-,0.00,Snow,Light Snow,270,2012-10-05 09:14:00
4:22 AM,32.0,32.0,100,29.87,1.2,West,10.4,19.6,0.00,Snow,Light Snow,260,2012-10-05 09:22:00
4:30 AM,32.0,32.0,100,29.87,3.0,West,11.5,19.6,0.00,Snow,Light Snow,260,2012-10-05 09:30:00
4:32 AM,32.0,30.2,93,29.87,2.5,West,11.5,19.6,0.00,Snow,Light Snow,260,2012-10-05 09:32:00
4:36 AM,32.0,30.2,93,29.87,1.8,West,12.7,23.0,0.00,Snow,Light Snow,270,2012-10-05 09:36:00
4:53 AM,32.0,30.9,96,29.92,1.5,West,16.1,25.3,0.01,Snow,Light Snow,280,2012-10-05 09:53:00
5:00 AM,32.0,32.0,100,29.87,1.0,West,11.5,25.3,0.00,Snow,Light Snow,270,2012-10-05 10:00:00
5:08 AM,32.0,32.0,100,29.87,1.2,West,12.7,20.7,0.00,Snow,Light Snow,270,2012-10-05 10:08:00
5:20 AM,32.0,30.2,93,29.87,2.5,West,10.4,24.2,0.00,Snow,Light Snow,270,2012-10-05 10:20:00
5:28 AM,32.0,30.2,93,29.86,5.0,West,13.8,20.7,0.00,Snow,Light Snow,270,2012-10-05 10:28:00
5:42 AM,32.0,30.2,93,29.87,1.8,West,15.0,26.5,0.00,Snow,Light Snow,280,2012-10-05 10:42:00
5:53 AM,32.0,30.9,96,29.92,1.2,West,12.7,27.6,0.00,Snow,Light Snow,280,2012-10-05 10:53:00
6:08 AM,32.0,30.2,93,29.87,2.0,West,12.7,20.7,0.01,Snow,Light Snow,270,2012-10-05 11:08:00
6:23 AM,32.0,30.2,93,29.87,5.0,West,11.5,19.6,0.01,Snow,Light Snow,270,2012-10-05 11:23:00
6:34 AM,32.0,30.2,93,29.87,3.0,West,9.2,20.7,0.01,Snow,Light Snow,270,2012-10-05 11:34:00
6:53 AM,32.0,30.0,92,29.92,8.0,West,12.7,20.7,0.01,Snow,Light Snow,280,2012-10-05 11:53:00
7:10 AM,32.0,30.2,93,29.87,6.0,West,11.5,26.5,0.00,Snow,Light Snow,270,2012-10-05 12:10:00
7:53 AM,33.1,28.9,85,29.93,10.0,West,12.7,20.7,0.00,,Overcast,270,2012-10-05 12:53:00
8:05 AM,33.8,28.4,81,29.87,10.0,West,10.4,18.4,N/A,,Overcast,270,2012-10-05 13:05:00
8:19 AM,33.8,28.4,81,29.88,10.0,West,11.5,25.3,N/A,,Overcast,270,2012-10-05 13:19:00
8:53 AM,33.1,28.0,82,29.94,10.0,West,10.4,18.4,N/A,,Overcast,270,2012-10-05 13:53:00
10:53 AM,35.1,30.0,82,29.96,5.0,West,10.4,23.0,0.00,Snow,Light Snow,280,2012-10-05 15:53:00
11:45 AM,35.6,28.4,75,29.92,1.8,West,10.4,24.2,0.00,Snow,Light Snow,280,2012-10-05 16:45:00
11:53 AM,35.1,28.9,78,29.98,1.8,West,13.8,23.0,0.00,Snow,Light Snow,280,2012-10-05 16:53:00
12:00 PM,35.6,30.2,81,29.92,2.5,West,10.4,21.9,0.00,Snow,Light Snow,270,2012-10-05 17:00:00
12:14 PM,33.8,28.4,81,29.93,1.0,West,12.7,21.9,0.00,Snow,Light Snow,280,2012-10-05 17:14:00
12:26 PM,35.6,30.2,81,29.93,2.5,West,11.5,19.6,0.00,Snow,Light Snow,280,2012-10-05 17:26:00
12:36 PM,33.8,30.2,87,29.93,1.8,West,9.2,23.0,0.00,Snow,Light Snow,270,2012-10-05 17:36:00
12:53 PM,34.0,30.0,85,29.99,1.0,WNW,11.5,21.9,0.00,Snow,Light Snow,290,2012-10-05 17:53:00
12:56 PM,33.8,30.2,87,29.93,1.0,West,12.7,21.9,0.00,Snow,Light Snow,270,2012-10-05 17:56:00
1:34 PM,33.8,30.2,87,29.93,2.0,WNW,13.8,20.7,0.01,Snow,Light Snow,290,2012-10-05 18:34:00
1:37 PM,33.8,30.2,87,29.93,3.0,WNW,10.4,20.7,0.01,Snow,Light Snow,290,2012-10-05 18:37:00
1:53 PM,34.0,30.9,89,29.99,9.0,WNW,12.7,24.2,0.01,,Overcast,290,2012-10-05 18:53:00
2:09 PM,35.6,30.2,81,29.93,10.0,West,10.4,19.6,N/A,,Overcast,280,2012-10-05 19:09:00
2:53 PM,35.1,30.9,85,29.99,7.0,WNW,15.0,19.6,0.00,Snow,Light Snow,290,2012-10-05 19:53:00
3:53 PM,35.1,30.9,85,30.01,4.0,WNW,11.5,18.4,0.00,Rain,Light Rain,290,2012-10-05 20:53:00
4:53 PM,35.1,32.0,89,30.02,10.0,West,10.4,17.3,0.00,,Overcast,280,2012-10-05 21:53:00
5:34 PM,35.6,32.0,87,29.97,10.0,West,12.7,19.6,0.00,,Overcast,280,2012-10-05 22:34:00
5:53 PM,35.1,32.0,89,30.04,9.0,WNW,10.4,17.3,0.00,Rain,Light Rain,290,2012-10-05 22:53:00
6:24 PM,35.6,32.0,87,29.99,10.0,WNW,9.2,17.3,0.00,,Overcast,290,2012-10-05 23:24:00
6:50 PM,35.6,32.0,87,30.00,10.0,WNW,10.4,-,0.00,,Overcast,290,2012-10-05 23:50:00
6:53 PM,35.1,32.0,89,30.05,10.0,West,9.2,-,0.00,,Overcast,280,2012-10-05 23:53:00
7:24 PM,35.6,30.2,81,30.00,10.0,WNW,10.4,18.4,0.00,,Overcast,300,2012-10-06 00:24:00
8:23 PM,35.6,32.0,87,30.02,10.0,NW,12.7,21.9,0.00,Rain,Light Rain,310,2012-10-06 01:23:00
8:46 PM,35.6,32.0,87,30.03,10.0,NW,12.7,19.6,0.00,Rain,Light Rain,320,2012-10-06 01:46:00
8:53 PM,35.1,30.9,85,30.09,10.0,NNW,13.8,23.0,0.00,Snow,Light Snow,330,2012-10-06 01:53:00
9:34 PM,33.8,30.2,87,30.05,6.0,NNW,12.7,-,0.00,Snow,Light Snow,340,2012-10-06 02:34:00
9:45 PM,33.8,30.2,87,30.05,6.0,NNW,15.0,-,0.00,Snow,Light Snow,340,2012-10-06 02:45:00
9:49 PM,33.8,30.2,87,30.05,8.0,NNW,15.0,-,0.00,Snow,Light Snow,330,2012-10-06 02:49:00
9:53 PM,34.0,30.0,85,30.10,9.0,NNW,17.3,24.2,0.00,Snow,Light Snow,340,2012-10-06 02:53:00
10:00 PM,33.8,30.2,87,30.05,9.0,NNW,13.8,24.2,0.00,,Overcast,340,2012-10-06 03:00:00
10:24 PM,33.8,30.2,87,30.05,3.0,NNW,13.8,20.7,0.00,Snow,Light Snow,340,2012-10-06 03:24:00
10:31 PM,33.8,30.2,87,30.05,9.0,North,15.0,-,0.00,,Overcast,350,2012-10-06 03:31:00
10:53 PM,33.1,28.9,85,30.12,10.0,North,12.7,-,0.00,,Overcast,350,2012-10-06 03:53:00
11:53 PM,33.1,28.9,85,30.13,10.0,North,11.5,-,N/A,,Overcast,350,2012-10-06 04:53:00